sensor_id;sensor_type;location;lat;lon;timestamp;pressure;altitude;pressure_sealevel;temperature;humidity
47815;BME280;33579;50.058;18.130;2023-02-15T00:01:08;100928.50;;;3.07;100.00
47815;BME280;33579;50.058;18.130;2023-02-15T00:02:10;100918.22;;;3.04;100.00
47815;BME280;33579;50.058;18.130;2023-02-15T00:03:12;100920.97;;;2.98;100.00
47815;BME280;33579;50.058;18.130;2023-02-15T00:04:16;100922.75;;;2.96;100.00
47815;BME280;33579;50.058;18.130;2023-02-15T00:05:18;100918.34;;;2.98;100.00
47815;BME280;33579;50.058;18.130;2023-02-15T00:06:19;100911.31;;;3.03;100.00
47815;BME280;33579;50.058;18.130;2023-02-15T00:07:21;100912.03;;;3.07;100.00
47815;BME280;33579;50.058;18.130;2023-02-15T00:08:23;100916.28;;;3.11;100.00
47815;BME280;33579;50.058;18.130;2023-02-15T00:09:24;100912.72;;;3.14;100.00
47815;BME280;33579;50.058;18.130;2023-02-15T00:10:26;100913.59;;;3.14;100.00
47815;BME280;33579;50.058;18.130;2023-02-15T00:11:27;100917.97;;;3.12;100.00
47815;BME280;33579;50.058;18.130;2023-02-15T00:12:29;100915.31;;;3.14;100.00
47815;BME280;33579;50.058;18.130;2023-02-15T00:13:31;100909.50;;;3.05;100.00
47815;BME280;33579;50.058;18.130;2023-02-15T00:14:32;100910.78;;;2.90;100.00
47815;BME280;33579;50.058;18.130;2023-02-15T00:15:34;100913.34;;;2.92;100.00
47815;BME280;33579;50.058;18.130;2023-02-15T00:16:37;100914.47;;;2.81;100.00
47815;BME280;33579;50.058;18.130;2023-02-15T00:17:39;100910.25;;;2.77;100.00
47815;BME280;33579;50.058;18.130;2023-02-15T00:18:40;100914.50;;;2.80;100.00
47815;BME280;33579;50.058;18.130;2023-02-15T00:19:42;100911.03;;;2.81;100.00
47815;BME280;33579;50.058;18.130;2023-02-15T00:20:43;100907.53;;;2.82;100.00
47815;BME280;33579;50.058;18.130;2023-02-15T00:21:46;100909.09;;;2.88;100.00
47815;BME280;33579;50.058;18.130;2023-02-15T00:22:47;100915.06;;;2.91;100.00
47815;BME280;33579;50.058;18.130;2023-02-15T00:23:49;100902.09;;;2.90;100.00
47815;BME280;33579;50.058;18.130;2023-02-15T00:24:51;100907.69;;;2.76;100.00
47815;BME280;33579;50.058;18.130;2023-02-15T00:26:05;100914.19;;;2.59;100.00
47815;BME280;33579;50.058;18.130;2023-02-15T00:27:07;100901.38;;;2.53;100.00
47815;BME280;33579;50.058;18.130;2023-02-15T00:28:09;100900.59;;;2.49;100.00
47815;BME280;33579;50.058;18.130;2023-02-15T00:29:12;100903.28;;;2.45;100.00
47815;BME280;33579;50.058;18.130;2023-02-15T00:30:14;100899.09;;;2.41;100.00
47815;BME280;33579;50.058;18.130;2023-02-15T00:31:15;100901.72;;;2.39;100.00
47815;BME280;33579;50.058;18.130;2023-02-15T00:32:17;100907.78;;;2.38;100.00
47815;BME280;33579;50.058;18.130;2023-02-15T00:33:19;100905.16;;;2.39;100.00
47815;BME280;33579;50.058;18.130;2023-02-15T00:34:23;100907.78;;;2.39;100.00
47815;BME280;33579;50.058;18.130;2023-02-15T00:35:24;100898.34;;;2.35;100.00
47815;BME280;33579;50.058;18.130;2023-02-15T00:36:26;100899.16;;;2.37;100.00
47815;BME280;33579;50.058;18.130;2023-02-15T00:37:28;100899.09;;;2.39;100.00
47815;BME280;33579;50.058;18.130;2023-02-15T00:38:30;100904.09;;;2.47;100.00
47815;BME280;33579;50.058;18.130;2023-02-15T00:39:32;100897.88;;;2.54;100.00
47815;BME280;33579;50.058;18.130;2023-02-15T00:40:33;100895.25;;;2.56;100.00
47815;BME280;33579;50.058;18.130;2023-02-15T00:41:36;100894.28;;;2.58;100.00
47815;BME280;33579;50.058;18.130;2023-02-15T00:42:37;100898.41;;;2.67;100.00
47815;BME280;33579;50.058;18.130;2023-02-15T00:43:39;100887.94;;;2.70;100.00
47815;BME280;33579;50.058;18.130;2023-02-15T00:44:41;100890.63;;;2.67;100.00
47815;BME280;33579;50.058;18.130;2023-02-15T00:45:42;100896.84;;;2.60;100.00
47815;BME280;33579;50.058;18.130;2023-02-15T00:46:46;100890.97;;;2.53;100.00
47815;BME280;33579;50.058;18.130;2023-02-15T00:47:47;100893.69;;;2.48;100.00
47815;BME280;33579;50.058;18.130;2023-02-15T00:48:49;100889.34;;;2.49;100.00
47815;BME280;33579;50.058;18.130;2023-02-15T00:49:51;100889.28;;;2.52;100.00
47815;BME280;33579;50.058;18.130;2023-02-15T00:50:54;100894.47;;;2.52;100.00
47815;BME280;33579;50.058;18.130;2023-02-15T00:51:56;100892.59;;;2.57;100.00
47815;BME280;33579;50.058;18.130;2023-02-15T00:52:58;100894.16;;;2.63;100.00
47815;BME280;33579;50.058;18.130;2023-02-15T00:54:00;100888.84;;;2.67;100.00
47815;BME280;33579;50.058;18.130;2023-02-15T00:55:03;100895.69;;;2.72;100.00
47815;BME280;33579;50.058;18.130;2023-02-15T00:56:05;100893.00;;;2.75;100.00
47815;BME280;33579;50.058;18.130;2023-02-15T00:57:07;100888.81;;;2.69;100.00
47815;BME280;33579;50.058;18.130;2023-02-15T00:58:10;100893.28;;;2.64;100.00
47815;BME280;33579;50.058;18.130;2023-02-15T00:59:11;100885.41;;;2.67;100.00
47815;BME280;33579;50.058;18.130;2023-02-15T01:00:13;100885.31;;;2.72;100.00
47815;BME280;33579;50.058;18.130;2023-02-15T01:01:17;100883.41;;;2.77;100.00
47815;BME280;33579;50.058;18.130;2023-02-15T01:02:19;100890.41;;;2.75;100.00
47815;BME280;33579;50.058;18.130;2023-02-15T01:03:21;100883.53;;;2.72;100.00
47815;BME280;33579;50.058;18.130;2023-02-15T01:04:22;100886.13;;;2.72;100.00
47815;BME280;33579;50.058;18.130;2023-02-15T01:05:24;100884.34;;;2.74;100.00
47815;BME280;33579;50.058;18.130;2023-02-15T01:06:25;100878.31;;;2.74;100.00
47815;BME280;33579;50.058;18.130;2023-02-15T01:07:27;100877.50;;;2.72;100.00
47815;BME280;33579;50.058;18.130;2023-02-15T01:08:29;100880.28;;;2.64;100.00
47815;BME280;33579;50.058;18.130;2023-02-15T01:09:30;100882.97;;;2.61;100.00
47815;BME280;33579;50.058;18.130;2023-02-15T01:10:33;100883.06;;;2.58;100.00
47815;BME280;33579;50.058;18.130;2023-02-15T01:11:35;100884.97;;;2.51;100.00
47815;BME280;33579;50.058;18.130;2023-02-15T01:12:37;100874.66;;;2.48;100.00
47815;BME280;33579;50.058;18.130;2023-02-15T01:13:40;100879.78;;;2.49;100.00
47815;BME280;33579;50.058;18.130;2023-02-15T01:14:42;100878.09;;;2.48;100.00
47815;BME280;33579;50.058;18.130;2023-02-15T01:15:44;100874.50;;;2.52;100.00
47815;BME280;33579;50.058;18.130;2023-02-15T01:16:46;100875.28;;;2.56;100.00
47815;BME280;33579;50.058;18.130;2023-02-15T01:17:47;100866.56;;;2.59;100.00
47815;BME280;33579;50.058;18.130;2023-02-15T01:18:49;100873.47;;;2.60;100.00
47815;BME280;33579;50.058;18.130;2023-02-15T01:19:51;100867.59;;;2.53;100.00
47815;BME280;33579;50.058;18.130;2023-02-15T01:20:53;100865.88;;;2.52;100.00
47815;BME280;33579;50.058;18.130;2023-02-15T01:21:54;100865.84;;;2.53;100.00
47815;BME280;33579;50.058;18.130;2023-02-15T01:22:56;100860.56;;;2.57;100.00
47815;BME280;33579;50.058;18.130;2023-02-15T01:23:58;100860.59;;;2.55;100.00
47815;BME280;33579;50.058;18.130;2023-02-15T01:25:00;100863.28;;;2.52;100.00
47815;BME280;33579;50.058;18.130;2023-02-15T01:26:03;100862.63;;;2.44;100.00
47815;BME280;33579;50.058;18.130;2023-02-15T01:27:05;100857.41;;;2.45;100.00
47815;BME280;33579;50.058;18.130;2023-02-15T01:28:07;100855.06;;;2.34;100.00
47815;BME280;33579;50.058;18.130;2023-02-15T01:29:08;100849.94;;;2.33;100.00
47815;BME280;33579;50.058;18.130;2023-02-15T01:30:10;100853.25;;;2.38;100.00
47815;BME280;33579;50.058;18.130;2023-02-15T01:31:15;100847.91;;;2.44;100.00
47815;BME280;33579;50.058;18.130;2023-02-15T01:32:19;100849.50;;;2.50;100.00
47815;BME280;33579;50.058;18.130;2023-02-15T01:33:21;100841.81;;;2.45;100.00
47815;BME280;33579;50.058;18.130;2023-02-15T01:34:22;100844.41;;;2.45;100.00
47815;BME280;33579;50.058;18.130;2023-02-15T01:35:24;100840.91;;;2.46;100.00
47815;BME280;33579;50.058;18.130;2023-02-15T01:36:27;100845.13;;;2.50;100.00
47815;BME280;33579;50.058;18.130;2023-02-15T01:37:33;100845.06;;;2.53;100.00
47815;BME280;33579;50.058;18.130;2023-02-15T01:38:35;100840.88;;;2.48;100.00
47815;BME280;33579;50.058;18.130;2023-02-15T01:39:39;100834.91;;;2.44;100.00
47815;BME280;33579;50.058;18.130;2023-02-15T01:40:41;100837.53;;;2.43;100.00
47815;BME280;33579;50.058;18.130;2023-02-15T01:41:43;100839.31;;;2.42;100.00
47815;BME280;33579;50.058;18.130;2023-02-15T01:42:45;100825.44;;;2.42;100.00
47815;BME280;33579;50.058;18.130;2023-02-15T01:43:52;100834.22;;;2.37;100.00
47815;BME280;33579;50.058;18.130;2023-02-15T01:45:00;100832.66;;;2.32;100.00
47815;BME280;33579;50.058;18.130;2023-02-15T01:46:03;100836.13;;;2.31;100.00
47815;BME280;33579;50.058;18.130;2023-02-15T01:47:09;100827.53;;;2.29;100.00
47815;BME280;33579;50.058;18.130;2023-02-15T01:48:24;100831.88;;;2.28;100.00
47815;BME280;33579;50.058;18.130;2023-02-15T01:49:28;100823.16;;;2.31;100.00
47815;BME280;33579;50.058;18.130;2023-02-15T01:50:35;100828.56;;;2.23;100.00
47815;BME280;33579;50.058;18.130;2023-02-15T01:51:41;100824.09;;;2.27;100.00
47815;BME280;33579;50.058;18.130;2023-02-15T01:52:49;100821.38;;;2.31;100.00
47815;BME280;33579;50.058;18.130;2023-02-15T01:53:57;100822.25;;;2.32;100.00
47815;BME280;33579;50.058;18.130;2023-02-15T01:55:01;100816.97;;;2.35;100.00
47815;BME280;33579;50.058;18.130;2023-02-15T01:56:07;100813.09;;;2.18;100.00
47815;BME280;33579;50.058;18.130;2023-02-15T01:57:13;100828.88;;;2.10;100.00
47815;BME280;33579;50.058;18.130;2023-02-15T01:58:17;100822.19;;;2.00;100.00
47815;BME280;33579;50.058;18.130;2023-02-15T01:59:22;100824.09;;;1.93;100.00
47815;BME280;33579;50.058;18.130;2023-02-15T02:00:24;100826.94;;;1.82;100.00
47815;BME280;33579;50.058;18.130;2023-02-15T02:01:26;100824.41;;;1.81;100.00
47815;BME280;33579;50.058;18.130;2023-02-15T02:02:31;100816.63;;;1.81;100.00
47815;BME280;33579;50.058;18.130;2023-02-15T02:05:07;100818.78;;;1.62;100.00
47815;BME280;33579;50.058;18.130;2023-02-15T02:06:10;100822.38;;;1.56;100.00
47815;BME280;33579;50.058;18.130;2023-02-15T02:07:16;100816.44;;;1.51;100.00
47815;BME280;33579;50.058;18.130;2023-02-15T02:08:18;100825.97;;;1.50;100.00
47815;BME280;33579;50.058;18.130;2023-02-15T02:09:21;100816.44;;;1.51;100.00
47815;BME280;33579;50.058;18.130;2023-02-15T02:10:24;100819.91;;;1.51;100.00
47815;BME280;33579;50.058;18.130;2023-02-15T02:11:26;100815.50;;;1.55;100.00
47815;BME280;33579;50.058;18.130;2023-02-15T02:12:28;100815.41;;;1.58;100.00
47815;BME280;33579;50.058;18.130;2023-02-15T02:13:30;100817.91;;;1.63;100.00
47815;BME280;33579;50.058;18.130;2023-02-15T02:14:32;100812.56;;;1.69;100.00
47815;BME280;33579;50.058;18.130;2023-02-15T02:16:00;100806.47;;;1.70;100.00
47815;BME280;33579;50.058;18.130;2023-02-15T02:27:39;100778.56;;;1.80;100.00
47815;BME280;33579;50.058;18.130;2023-02-15T02:34:00;100779.53;;;1.76;100.00
47815;BME280;33579;50.058;18.130;2023-02-15T02:36:24;100778.00;;;1.67;100.00
47815;BME280;33579;50.058;18.130;2023-02-15T02:44:48;100766.41;;;1.46;100.00
47815;BME280;33579;50.058;18.130;2023-02-15T02:45:57;100763.72;;;1.50;100.00
47815;BME280;33579;50.058;18.130;2023-02-15T02:47:06;100759.25;;;1.56;100.00
47815;BME280;33579;50.058;18.130;2023-02-15T02:48:13;100763.63;;;1.53;100.00
47815;BME280;33579;50.058;18.130;2023-02-15T02:49:16;100763.63;;;1.55;100.00
47815;BME280;33579;50.058;18.130;2023-02-15T02:50:22;100763.56;;;1.57;100.00
47815;BME280;33579;50.058;18.130;2023-02-15T02:51:24;100767.91;;;1.56;100.00
47815;BME280;33579;50.058;18.130;2023-02-15T02:53:39;100760.84;;;1.61;100.00
47815;BME280;33579;50.058;18.130;2023-02-15T02:54:41;100756.38;;;1.66;100.00
47815;BME280;33579;50.058;18.130;2023-02-15T02:55:51;100763.44;;;1.63;100.00
47815;BME280;33579;50.058;18.130;2023-02-15T02:56:56;100767.66;;;1.65;100.00
47815;BME280;33579;50.058;18.130;2023-02-15T02:58:05;100759.94;;;1.64;100.00
47815;BME280;33579;50.058;18.130;2023-02-15T03:00:12;100765.94;;;1.66;100.00
47815;BME280;33579;50.058;18.130;2023-02-15T03:01:24;100764.16;;;1.68;100.00
47815;BME280;33579;50.058;18.130;2023-02-15T03:02:32;100765.13;;;1.64;100.00
47815;BME280;33579;50.058;18.130;2023-02-15T03:03:41;100758.22;;;1.63;100.00
47815;BME280;33579;50.058;18.130;2023-02-15T03:04:53;100765.22;;;1.59;100.00
47815;BME280;33579;50.058;18.130;2023-02-15T03:05:59;100758.25;;;1.61;100.00
47815;BME280;33579;50.058;18.130;2023-02-15T03:07:12;100762.63;;;1.59;100.00
47815;BME280;33579;50.058;18.130;2023-02-15T03:08:19;100761.81;;;1.57;100.00
47815;BME280;33579;50.058;18.130;2023-02-15T03:09:33;100763.56;;;1.57;100.00
47815;BME280;33579;50.058;18.130;2023-02-15T03:10:39;100767.81;;;1.59;100.00
47815;BME280;33579;50.058;18.130;2023-02-15T03:11:45;100773.81;;;1.63;100.00
47815;BME280;33579;50.058;18.130;2023-02-15T03:12:49;100772.09;;;1.62;100.00
47815;BME280;33579;50.058;18.130;2023-02-15T03:13:51;100772.09;;;1.62;100.00
47815;BME280;33579;50.058;18.130;2023-02-15T03:14:58;100773.84;;;1.60;100.00
47815;BME280;33579;50.058;18.130;2023-02-15T03:16:04;100779.34;;;1.47;100.00
47815;BME280;33579;50.058;18.130;2023-02-15T03:17:07;100773.44;;;1.40;100.00
47815;BME280;33579;50.058;18.130;2023-02-15T03:18:10;100778.72;;;1.37;100.00
47815;BME280;33579;50.058;18.130;2023-02-15T03:19:15;100783.94;;;1.36;100.00
47815;BME280;33579;50.058;18.130;2023-02-15T03:20:26;100778.72;;;1.37;100.00
47815;BME280;33579;50.058;18.130;2023-02-15T03:21:34;100784.75;;;1.38;100.00
47815;BME280;33579;50.058;18.130;2023-02-15T03:22:57;100783.00;;;1.38;100.00
47815;BME280;33579;50.058;18.130;2023-02-15T03:24:07;100783.06;;;1.37;100.00
47815;BME280;33579;50.058;18.130;2023-02-15T03:25:22;100784.88;;;1.33;100.00
47815;BME280;33579;50.058;18.130;2023-02-15T03:26:26;100778.03;;;1.29;100.00
47815;BME280;33579;50.058;18.130;2023-02-15T03:27:43;100779.91;;;1.22;100.00
47815;BME280;33579;50.058;18.130;2023-02-15T03:28:49;100787.03;;;1.14;100.00
47815;BME280;33579;50.058;18.130;2023-02-15T03:29:57;100782.72;;;1.13;100.00
47815;BME280;33579;50.058;18.130;2023-02-15T03:31:02;100787.03;;;1.14;100.00
47815;BME280;33579;50.058;18.130;2023-02-15T03:32:08;100778.47;;;1.09;100.00
47815;BME280;33579;50.058;18.130;2023-02-15T03:33:13;100787.19;;;1.06;100.00
47815;BME280;33579;50.058;18.130;2023-02-15T03:34:16;100775.94;;;1.07;100.00
47815;BME280;33579;50.058;18.130;2023-02-15T03:35:23;100769.78;;;1.11;100.00
47815;BME280;33579;50.058;18.130;2023-02-15T03:37:37;100769.72;;;1.15;100.00
47815;BME280;33579;50.058;18.130;2023-02-15T03:38:47;100776.66;;;1.14;100.00
47815;BME280;33579;50.058;18.130;2023-02-15T03:40:29;100774.19;;;1.08;100.00
47815;BME280;33579;50.058;18.130;2023-02-15T03:41:36;100775.94;;;1.07;100.00
47815;BME280;33579;50.058;18.130;2023-02-15T03:42:41;100774.25;;;1.05;100.00
47815;BME280;33579;50.058;18.130;2023-02-15T03:43:57;100776.13;;;0.98;100.00
47815;BME280;33579;50.058;18.130;2023-02-15T03:45:03;100783.03;;;0.97;100.00
47815;BME280;33579;50.058;18.130;2023-02-15T03:46:12;100777.13;;;0.92;100.00
47815;BME280;33579;50.058;18.130;2023-02-15T03:47:20;100779.09;;;0.79;100.00
47815;BME280;33579;50.058;18.130;2023-02-15T03:48:27;100781.91;;;0.70;100.00
47815;BME280;33579;50.058;18.130;2023-02-15T03:49:36;100782.00;;;0.64;100.00
47815;BME280;33579;50.058;18.130;2023-02-15T03:50:39;100776.03;;;0.60;100.00
47815;BME280;33579;50.058;18.130;2023-02-15T03:51:43;100778.69;;;0.57;100.00
47815;BME280;33579;50.058;18.130;2023-02-15T03:52:47;100776.88;;;0.62;100.00
47815;BME280;33579;50.058;18.130;2023-02-15T03:53:50;100777.78;;;0.60;100.00
47815;BME280;33579;50.058;18.130;2023-02-15T03:54:52;100778.75;;;0.54;100.00
47815;BME280;33579;50.058;18.130;2023-02-15T03:55:55;100779.66;;;0.51;100.00
47815;BME280;33579;50.058;18.130;2023-02-15T03:56:57;100784.94;;;0.47;100.00
47815;BME280;33579;50.058;18.130;2023-02-15T03:57:58;100779.88;;;0.40;100.00
47815;BME280;33579;50.058;18.130;2023-02-15T03:59:00;100777.31;;;0.39;100.00
47815;BME280;33579;50.058;18.130;2023-02-15T04:00:05;100776.56;;;0.32;100.00
47815;BME280;33579;50.058;18.130;2023-02-15T04:01:27;100779.19;;;0.31;100.00
47815;BME280;33579;50.058;18.130;2023-02-15T04:04:02;100779.09;;;0.37;100.00
47815;BME280;33579;50.058;18.130;2023-02-15T04:05:06;100782.53;;;0.37;100.00
47815;BME280;33579;50.058;18.130;2023-02-15T04:06:07;100781.53;;;0.45;100.00
47815;BME280;33579;50.058;18.130;2023-02-15T04:07:09;100781.34;;;0.54;100.00
47815;BME280;33579;50.058;18.130;2023-02-15T04:08:12;100781.22;;;0.60;100.00
47815;BME280;33579;50.058;18.130;2023-02-15T04:09:13;100773.41;;;0.63;100.00
47815;BME280;33579;50.058;18.130;2023-02-15T04:10:15;100778.53;;;0.65;100.00
47815;BME280;33579;50.058;18.130;2023-02-15T04:11:17;100777.63;;;0.67;100.00
47815;BME280;33579;50.058;18.130;2023-02-15T04:12:19;100777.47;;;0.74;100.00
47815;BME280;33579;50.058;18.130;2023-02-15T04:13:23;100772.31;;;0.74;100.00
47815;BME280;33579;50.058;18.130;2023-02-15T04:14:25;100775.66;;;0.79;100.00
47815;BME280;33579;50.058;18.130;2023-02-15T04:15:27;100777.31;;;0.83;100.00
47815;BME280;33579;50.058;18.130;2023-02-15T04:16:28;100772.94;;;0.85;100.00
47815;BME280;33579;50.058;18.130;2023-02-15T04:17:32;100776.56;;;0.76;100.00
47815;BME280;33579;50.058;18.130;2023-02-15T04:18:38;100772.38;;;0.70;100.00
47815;BME280;33579;50.058;18.130;2023-02-15T04:19:40;100775.03;;;0.67;100.00
47815;BME280;33579;50.058;18.130;2023-02-15T04:20:45;100778.53;;;0.65;100.00
47815;BME280;33579;50.058;18.130;2023-02-15T04:21:47;100775.91;;;0.66;100.00
47815;BME280;33579;50.058;18.130;2023-02-15T04:22:49;100777.63;;;0.67;100.00
47815;BME280;33579;50.058;18.130;2023-02-15T04:23:50;100771.56;;;0.68;100.00
47815;BME280;33579;50.058;18.130;2023-02-15T04:24:52;100775.84;;;0.71;100.00
47815;BME280;33579;50.058;18.130;2023-02-15T04:25:53;100779.25;;;0.72;100.00
47815;BME280;33579;50.058;18.130;2023-02-15T04:26:55;100771.53;;;0.70;100.00
47815;BME280;33579;50.058;18.130;2023-02-15T04:27:57;100772.44;;;0.69;100.00
47815;BME280;33579;50.058;18.130;2023-02-15T04:28:58;100771.78;;;0.58;100.00
47815;BME280;33579;50.058;18.130;2023-02-15T04:30:00;100771.06;;;0.49;100.00
47815;BME280;33579;50.058;18.130;2023-02-15T04:31:02;100768.50;;;0.49;100.00
47815;BME280;33579;50.058;18.130;2023-02-15T04:32:03;100767.53;;;0.53;100.00
47815;BME280;33579;50.058;18.130;2023-02-15T04:33:05;100767.50;;;0.55;100.00
47815;BME280;33579;50.058;18.130;2023-02-15T04:34:07;100768.31;;;0.59;100.00
47815;BME280;33579;50.058;18.130;2023-02-15T04:35:09;100758.84;;;0.58;100.00
47815;BME280;33579;50.058;18.130;2023-02-15T04:36:10;100762.44;;;0.50;100.00
47815;BME280;33579;50.058;18.130;2023-02-15T04:37:12;100764.38;;;0.39;100.00
47815;BME280;33579;50.058;18.130;2023-02-15T04:38:13;100761.88;;;0.34;100.00
47815;BME280;33579;50.058;18.130;2023-02-15T04:39:16;100760.25;;;0.28;100.00
47815;BME280;33579;50.058;18.130;2023-02-15T04:40:18;100759.50;;;0.22;100.00
47815;BME280;33579;50.058;18.130;2023-02-15T04:41:20;100760.53;;;0.15;100.00
47815;BME280;33579;50.058;18.130;2023-02-15T04:42:21;100756.22;;;0.13;100.00
47815;BME280;33579;50.058;18.130;2023-02-15T04:43:23;100760.41;;;0.21;100.00
47815;BME280;33579;50.058;18.130;2023-02-15T04:44:25;100762.88;;;0.27;100.00
47815;BME280;33579;50.058;18.130;2023-02-15T04:45:26;100755.94;;;0.27;100.00
47815;BME280;33579;50.058;18.130;2023-02-15T04:46:28;100757.56;;;0.33;100.00
47815;BME280;33579;50.058;18.130;2023-02-15T04:47:29;100757.56;;;0.35;100.00
47815;BME280;33579;50.058;18.130;2023-02-15T04:48:31;100751.41;;;0.39;100.00
47815;BME280;33579;50.058;18.130;2023-02-15T04:49:33;100753.03;;;0.45;100.00
47815;BME280;33579;50.058;18.130;2023-02-15T04:50:34;100750.38;;;0.48;100.00
47815;BME280;33579;50.058;18.130;2023-02-15T04:51:36;100752.94;;;0.49;100.00
47815;BME280;33579;50.058;18.130;2023-02-15T04:52:38;100751.34;;;0.44;100.00
47815;BME280;33579;50.058;18.130;2023-02-15T04:53:39;100753.25;;;0.34;100.00
47815;BME280;33579;50.058;18.130;2023-02-15T04:54:41;100752.53;;;0.27;100.00
47815;BME280;33579;50.058;18.130;2023-02-15T04:55:42;100756.03;;;0.23;100.00
47815;BME280;33579;50.058;18.130;2023-02-15T04:56:44;100751.72;;;0.23;100.00
47815;BME280;33579;50.058;18.130;2023-02-15T04:57:46;100750.84;;;0.24;100.00
47815;BME280;33579;50.058;18.130;2023-02-15T04:58:47;100753.44;;;0.24;100.00
47815;BME280;33579;50.058;18.130;2023-02-15T04:59:49;100753.41;;;0.26;100.00
47815;BME280;33579;50.058;18.130;2023-02-15T05:00:51;100756.88;;;0.25;100.00
47815;BME280;33579;50.058;18.130;2023-02-15T05:01:53;100756.09;;;0.21;100.00
47815;BME280;33579;50.058;18.130;2023-02-15T05:02:54;100759.50;;;0.22;100.00
47815;BME280;33579;50.058;18.130;2023-02-15T05:03:56;100756.09;;;0.21;100.00
47815;BME280;33579;50.058;18.130;2023-02-15T05:04:58;100751.91;;;0.14;100.00
47815;BME280;33579;50.058;18.130;2023-02-15T05:06:00;100755.31;;;0.16;100.00
47815;BME280;33579;50.058;18.130;2023-02-15T05:07:02;100750.16;;;0.15;100.00
47815;BME280;33579;50.058;18.130;2023-02-15T05:08:04;100750.09;;;0.18;100.00
47815;BME280;33579;50.058;18.130;2023-02-15T05:09:05;100755.28;;;0.18;100.00
47815;BME280;33579;50.058;18.130;2023-02-15T05:10:07;100752.69;;;0.19;100.00
47815;BME280;33579;50.058;18.130;2023-02-15T05:11:09;100757.81;;;0.21;100.00
47815;BME280;33579;50.058;18.130;2023-02-15T05:12:10;100759.47;;;0.25;100.00
47815;BME280;33579;50.058;18.130;2023-02-15T05:13:12;100755.94;;;0.29;100.00
47815;BME280;33579;50.058;18.130;2023-02-15T05:14:13;100754.16;;;0.31;100.00
47815;BME280;33579;50.058;18.130;2023-02-15T05:15:15;100759.28;;;0.34;100.00
47815;BME280;33579;50.058;18.130;2023-02-15T05:16:17;100757.63;;;0.32;100.00
47815;BME280;33579;50.058;18.130;2023-02-15T05:17:19;100761.03;;;0.34;100.00
47815;BME280;33579;50.058;18.130;2023-02-15T05:18:21;100762.66;;;0.39;100.00
47815;BME280;33579;50.058;18.130;2023-02-15T05:19:22;100760.94;;;0.38;100.00
47815;BME280;33579;50.058;18.130;2023-02-15T05:20:24;100762.69;;;0.36;100.00
47815;BME280;33579;50.058;18.130;2023-02-15T05:21:26;100758.34;;;0.38;100.00
47815;BME280;33579;50.058;18.130;2023-02-15T05:22:27;100753.94;;;0.44;100.00
47815;BME280;33579;50.058;18.130;2023-02-15T05:23:29;100755.69;;;0.41;100.00
47815;BME280;33579;50.058;18.130;2023-02-15T05:24:30;100755.69;;;0.41;100.00
47815;BME280;33579;50.058;18.130;2023-02-15T05:25:32;100752.31;;;0.36;100.00
47815;BME280;33579;50.058;18.130;2023-02-15T05:26:34;100757.56;;;0.33;100.00
47815;BME280;33579;50.058;18.130;2023-02-15T05:27:35;100751.66;;;0.28;100.00
47815;BME280;33579;50.058;18.130;2023-02-15T05:28:37;100762.84;;;0.28;100.00
47815;BME280;33579;50.058;18.130;2023-02-15T05:29:39;100754.34;;;0.22;100.00
47815;BME280;33579;50.058;18.130;2023-02-15T05:30:41;100753.56;;;0.17;100.00
47815;BME280;33579;50.058;18.130;2023-02-15T05:31:42;100760.44;;;0.19;100.00
47815;BME280;33579;50.058;18.130;2023-02-15T05:32:44;100756.84;;;0.26;100.00
47815;BME280;33579;50.058;18.130;2023-02-15T05:33:46;100761.25;;;0.21;100.00
47815;BME280;33579;50.058;18.130;2023-02-15T05:34:48;100756.09;;;0.20;100.00
47815;BME280;33579;50.058;18.130;2023-02-15T05:35:49;100757.13;;;0.12;100.00
47815;BME280;33579;50.058;18.130;2023-02-15T05:36:51;100752.13;;;0.02;100.00
47815;BME280;33579;50.058;18.130;2023-02-15T05:37:52;100757.34;;;-0.02;100.00
47815;BME280;33579;50.058;18.130;2023-02-15T05:38:54;100760.88;;;-0.06;100.00
47815;BME280;33579;50.058;18.130;2023-02-15T05:39:56;100754.84;;;-0.06;100.00
47815;BME280;33579;50.058;18.130;2023-02-15T05:40:58;100753.97;;;-0.07;100.00
47815;BME280;33579;50.058;18.130;2023-02-15T05:41:59;100748.81;;;-0.07;100.00
47815;BME280;33579;50.058;18.130;2023-02-15T05:43:01;100759.22;;;-0.10;100.00
47815;BME280;33579;50.058;18.130;2023-02-15T05:44:03;100754.09;;;-0.13;100.00
47815;BME280;33579;50.058;18.130;2023-02-15T05:45:05;100753.34;;;-0.20;100.00
47815;BME280;33579;50.058;18.130;2023-02-15T05:46:07;100760.28;;;-0.22;100.00
47815;BME280;33579;50.058;18.130;2023-02-15T05:47:09;100760.25;;;-0.20;100.00
47815;BME280;33579;50.058;18.130;2023-02-15T05:48:10;100759.41;;;-0.21;100.00
47815;BME280;33579;50.058;18.130;2023-02-15T05:49:12;100762.91;;;-0.23;100.00
47815;BME280;33579;50.058;18.130;2023-02-15T05:50:14;100770.72;;;-0.28;100.00
47815;BME280;33579;50.058;18.130;2023-02-15T05:51:16;100763.91;;;-0.32;100.00
47815;BME280;33579;50.058;18.130;2023-02-15T05:52:17;100769.91;;;-0.32;100.00
47815;BME280;33579;50.058;18.130;2023-02-15T05:53:19;100773.38;;;-0.30;100.00
47815;BME280;33579;50.058;18.130;2023-02-15T05:54:21;100771.66;;;-0.31;100.00
47815;BME280;33579;50.058;18.130;2023-02-15T05:55:22;100769.97;;;-0.35;100.00
47815;BME280;33579;50.058;18.130;2023-02-15T05:56:24;100775.19;;;-0.36;100.00
47815;BME280;33579;50.058;18.130;2023-02-15T05:57:26;100770.84;;;-0.34;100.00
47815;BME280;33579;50.058;18.130;2023-02-15T05:58:30;100776.91;;;-0.37;100.00
47815;BME280;33579;50.058;18.130;2023-02-15T05:59:31;100776.09;;;-0.39;100.00